This is the latest recevied weather packets stored in our database for station/object VE3ZEB-1. If no packets are shown the sender has not sent any weather packets the latest 10 day(s).
| Time | Temp. | Humidity | Pressure | Rain* | Wind** | Luminosity | Snow |
|---|---|---|---|---|---|---|---|
| 1777410021 | 20.56° C | 62% | 679.9 hPa | 0 mm | - | 307 W/m² | - |
| 1777406422 | 19.44° C | 67% | 679.9 hPa | 0 mm | - | 135 W/m² | - |
| 1777403443 | 19.44° C | 72% | 679.9 hPa | 0 mm | - | 451 W/m² | - |
| 1777400423 | 20.56° C | 74% | 679.9 hPa | 0 mm | - | 116 W/m² | - |
| 1777392025 | 15° C | 94% | 679.6 hPa | 0 mm | - | 237 W/m² | - |
| 1777390826 | 14.44° C | 95% | 679.6 hPa | 0 mm | - | 148 W/m² | - |
| 1777389026 | 14.44° C | 95% | 679.6 hPa | 0 mm | - | 98 W/m² | - |
| 1777387217 | 13.33° C | 96% | 679.6 hPa | 0 mm | - | 104 W/m² | - |
| 1777382413 | 12.78° C | 94% | 679.5 hPa | 0 mm | - | 59 W/m² | - |
| 1777380619 | 12.22° C | 91% | 679.5 hPa | 0 mm | - | 35 W/m² | - |
| 1777368622 | 13.89° C | 71% | 679.7 hPa | 0.25 mm | - | 0 W/m² | - |
| 1777365022 | 15° C | 60% | 679.7 hPa | 0 mm | - | 0 W/m² | - |
| 1777363223 | 15° C | 59% | 679.7 hPa | 0 mm | - | 0 W/m² | - |
| 1777361418 | 15° C | 60% | 679.7 hPa | 0 mm | - | 0 W/m² | - |
| 1777360219 | 15° C | 60% | 679.7 hPa | 0 mm | - | 0 W/m² | - |
| 1777356019 | 16.11° C | 55% | 679.8 hPa | 0 mm | - | 0 W/m² | - |
| 1777354840 | 16.11° C | 53% | 679.8 hPa | 0 mm | - | 0 W/m² | - |
| 1777353020 | 16.11° C | 55% | 679.8 hPa | 0 mm | - | 0 W/m² | - |
| 1777348221 | 15.56° C | 59% | 679.7 hPa | 0 mm | - | 0 W/m² | - |
| 1777347022 | 15° C | 59% | 679.7 hPa | 0 mm | - | 0 W/m² | - |
| 1777345822 | 15° C | 61% | 679.7 hPa | 0 mm | - | 0 W/m² | - |
| 1777343422 | 14.44° C | 61% | 679.7 hPa | 0 mm | - | 0 W/m² | - |
| 1777342223 | 14.44° C | 61% | 679.7 hPa | 0 mm | - | 0 W/m² | - |
| 1777337424 | 16.11° C | 59% | 679.8 hPa | 0 mm | - | 0 W/m² | - |
| 1777333824 | 18.33° C | 51% | 679.9 hPa | 0 mm | - | 25 W/m² | - |
* Rain latest hour (hover to see other rain measurements)
** Current wind speed in m/s (hover to see current wind gust speed)